Boscobel, WI (53805)

8:28 AM CDT on September 02, 2015 (GMT -0500)
Boscobel | | Change Station
CLOSE
Current Station
Airport
Location: Boscobel,
Elevation: 673 ft
Nearby Weather Stations

Elev 673 ft 43.16 °N, 90.68 °W | Updated 9 minutes ago

Scattered Clouds
Scattered Clouds
71 °F
Feels Like 71 °F
N
0
Wind Variable Wind from North

Today
High -- | Low -- °F
--% Chance of Precip.
Yesterday
High -- | Low -- °F
Precip. -- in
6:27 AM 7:36 PM
Waning Gibbous, 80% visible
Pressure 29.99 in
Visibility 2.5 miles
Clouds Scattered Clouds 100 ft
Dew Point 69 °F
Humidity 93%
Rainfall 0.00 in
Snow Depth Not available.
UV 1 out of 12
Pollen 10.30 out of 12
Air Quality Not available.
Flu Activity Not available.
SPECI KOVS 021319Z AUTO 00000KT 2 1/2SM BR SCT001 22/21 A2999 RMK AO2 T02170206
Pressure 29.99 in
Visibility 2.5 miles
Clouds Scattered Clouds 100 ft
Dew Point 69 °F
Humidity 93%
Rainfall 0.00 in
Snow Depth Not available.
UV 1 out of 12
Pollen 10.30 out of 12
Air Quality Not available.
Flu Activity Not available.
SPECI KOVS 021319Z AUTO 00000KT 2 1/2SM BR SCT001 22/21 A2999 RMK AO2 T02170206

10-Day Weather Forecast

×

Almanac

Astronomy

Sep. 02, 2015 Rise Set
Actual Time
Civil Twilight
Nautical Twilight
Astronomical Twilight
Moon
Length of Visible Light
Length of Day
Tomorrow will be .
, % of the Moon is Illuminated

Today's Extremes

State Highs State Lows

Community

WunderPhotos

Upload Photos

1,851,749 photos uploaded!

WunderBlogs® & News

Nearby

Air Quality

  Air Quality AQ Index Pollutant
Not available.

Snow Depth

Station Depth Elevation

Earthquake Activity

City Distance Mag. Time & Date
Minimum magnitude displayed is 2.5.

Coastal Water Temperatures

Place Temperature

Stations

Nearby Weather Stations

Station Location Temp. Windchill Dew Point Humidity Wind Precip. Elev Updated Type